createdAt,value
2023-05-11T00:01:11.730Z,58.35
2023-05-11T00:03:58.104Z,58.35
2023-05-11T00:06:44.138Z,58.53
2023-05-11T00:09:30.754Z,58.65
2023-05-11T00:12:17.508Z,58.63
2023-05-11T00:15:04.187Z,58.94
2023-05-11T00:17:50.076Z,58.73
2023-05-11T00:20:36.441Z,59.05
2023-05-11T00:23:22.503Z,59.26
2023-05-11T00:26:08.412Z,59.36
2023-05-11T00:28:54.249Z,59.55
2023-05-11T00:31:40.541Z,59.34
2023-05-11T00:34:26.937Z,59.78
2023-05-11T00:37:13.643Z,60.47
2023-05-11T00:40:00.132Z,60.56
2023-05-11T00:42:46.487Z,60.73
2023-05-11T00:45:33.095Z,61.10
2023-05-11T00:48:19.158Z,61.03
2023-05-11T00:51:06.977Z,61.38
2023-05-11T00:53:53.471Z,61.47
2023-05-11T00:56:39.603Z,61.70
2023-05-11T00:59:25.569Z,61.87
2023-05-11T01:02:13.020Z,61.85
2023-05-11T01:05:00.200Z,61.89
2023-05-11T01:07:49.254Z,61.85
2023-05-11T01:10:47.175Z,62.12
2023-05-11T01:13:57.637Z,62.14
2023-05-11T01:16:49.196Z,62.37
2023-05-11T01:19:45.184Z,61.92
2023-05-11T01:23:11.039Z,62.37
2023-05-11T01:26:33.769Z,62.39
2023-05-11T01:29:41.757Z,62.38
2023-05-11T01:32:29.272Z,62.41
2023-05-11T01:35:19.265Z,62.70
2023-05-11T01:38:07.021Z,62.72
2023-05-11T01:40:56.098Z,62.57
2023-05-11T01:43:44.618Z,62.64
2023-05-11T01:46:32.956Z,62.74
2023-05-11T01:49:19.335Z,62.76
2023-05-11T01:52:07.913Z,62.84
2023-05-11T01:54:55.510Z,62.97
2023-05-11T01:57:42.205Z,62.92
2023-05-11T02:00:28.270Z,63.00
2023-05-11T02:03:15.781Z,62.71
2023-05-11T02:06:03.859Z,63.32
2023-05-11T02:08:51.158Z,63.30
2023-05-11T02:11:37.814Z,63.19
2023-05-11T02:14:29.195Z,63.45
2023-05-11T02:17:16.467Z,63.46
2023-05-11T02:20:04.640Z,63.31
2023-05-11T02:22:52.978Z,63.44
2023-05-11T02:25:40.159Z,63.55
2023-05-11T02:28:26.396Z,63.68
2023-05-11T02:31:17.973Z,64.18
2023-05-11T02:34:14.995Z,63.96
2023-05-11T02:37:02.741Z,64.14
2023-05-11T02:40:00.056Z,64.25
2023-05-11T02:42:49.669Z,64.54
2023-05-11T02:45:36.699Z,64.35
2023-05-11T02:48:40.533Z,65.20
2023-05-11T02:51:32.572Z,64.95
2023-05-11T02:54:19.652Z,64.97
2023-05-11T02:57:08.830Z,64.88
2023-05-11T02:59:56.100Z,65.28
2023-05-11T03:02:42.274Z,65.36
2023-05-11T03:05:29.145Z,65.57
2023-05-11T03:08:15.463Z,65.75
2023-05-11T03:11:02.660Z,65.81
2023-05-11T03:13:48.522Z,65.89
2023-05-11T03:16:38.178Z,65.94
2023-05-11T03:19:27.997Z,66.27
2023-05-11T03:22:15.698Z,66.50
2023-05-11T03:25:03.927Z,66.43
2023-05-11T03:27:53.933Z,66.93
2023-05-11T03:30:40.797Z,66.35
2023-05-11T03:33:27.049Z,66.80
2023-05-11T03:36:14.209Z,66.72
2023-05-11T03:39:02.311Z,66.65
2023-05-11T03:41:52.976Z,66.55
2023-05-11T03:44:42.189Z,66.77
2023-05-11T03:47:29.031Z,66.27
2023-05-11T03:50:16.318Z,66.15
2023-05-11T03:53:02.703Z,66.30
2023-05-11T03:55:50.137Z,66.32
2023-05-11T03:58:42.506Z,65.94
2023-05-11T04:01:29.327Z,66.01
2023-05-11T04:04:15.468Z,65.84
2023-05-11T04:07:02.392Z,65.47
2023-05-11T04:09:48.397Z,65.25
2023-05-11T04:12:34.486Z,64.98
2023-05-11T04:15:20.630Z,64.92
2023-05-11T04:18:08.140Z,64.66
2023-05-11T04:20:54.354Z,64.37
2023-05-11T04:23:40.875Z,64.10
2023-05-11T04:26:27.943Z,63.91
2023-05-11T04:29:14.498Z,63.60
2023-05-11T04:32:00.841Z,63.43
2023-05-11T04:34:48.159Z,63.23
2023-05-11T04:37:37.282Z,63.07
2023-05-11T04:40:26.806Z,62.82
2023-05-11T04:43:14.465Z,62.60
2023-05-11T04:46:02.703Z,62.56
2023-05-11T04:48:49.090Z,62.61
2023-05-11T04:51:35.637Z,61.92
2023-05-11T04:54:21.774Z,61.43
2023-05-11T04:57:09.013Z,60.78
2023-05-11T04:59:55.230Z,60.68
2023-05-11T05:02:42.075Z,60.22
2023-05-11T05:05:28.545Z,60.16
2023-05-11T05:08:15.889Z,59.74
2023-05-11T05:11:01.975Z,59.84
2023-05-11T05:13:48.326Z,59.05
2023-05-11T05:16:34.862Z,58.33
2023-05-11T05:19:21.989Z,57.91
2023-05-11T05:22:09.807Z,57.72
2023-05-11T05:24:56.042Z,56.76
2023-05-11T05:27:42.068Z,56.10
2023-05-11T05:30:33.277Z,55.59
2023-05-11T05:33:19.059Z,55.00
2023-05-11T05:36:05.449Z,55.19
2023-05-11T05:38:51.342Z,54.78
2023-05-11T05:41:38.262Z,54.00
2023-05-11T05:44:27.809Z,53.71
2023-05-11T05:47:14.132Z,53.79
2023-05-11T05:50:00.179Z,53.37
2023-05-11T05:52:46.702Z,53.01
2023-05-11T05:55:32.836Z,53.22
2023-05-11T05:58:21.745Z,52.57
2023-05-11T06:01:08.805Z,52.68
2023-05-11T06:03:55.872Z,51.98
2023-05-11T06:06:43.688Z,51.76
2023-05-11T06:09:30.074Z,51.91
2023-05-11T06:12:16.461Z,51.60
2023-05-11T06:15:07.436Z,51.75
2023-05-11T06:17:56.688Z,51.72
2023-05-11T06:20:43.909Z,51.74
2023-05-11T06:23:31.648Z,51.13
2023-05-11T06:26:17.889Z,51.09
2023-05-11T06:29:03.990Z,50.61
2023-05-11T06:31:54.502Z,50.49
2023-05-11T06:34:41.365Z,50.64
2023-05-11T06:37:30.440Z,50.19
2023-05-11T06:40:16.684Z,50.00
2023-05-11T06:43:03.315Z,49.26
2023-05-11T06:46:03.449Z,49.39
2023-05-11T06:48:50.454Z,49.84
2023-05-11T06:51:36.339Z,49.79
2023-05-11T06:54:22.964Z,49.55
2023-05-11T06:57:08.602Z,49.01
2023-05-11T06:59:54.686Z,49.05
2023-05-11T07:02:42.405Z,48.71
2023-05-11T07:05:32.720Z,48.96
2023-05-11T07:08:18.625Z,48.62
2023-05-11T07:11:05.228Z,48.18
2023-05-11T07:13:51.364Z,48.23
2023-05-11T07:16:41.270Z,48.11
2023-05-11T07:19:27.811Z,48.40
2023-05-11T07:22:15.221Z,48.13
2023-05-11T07:25:01.234Z,48.39
2023-05-11T07:27:47.731Z,48.29
2023-05-11T07:30:33.902Z,48.19
2023-05-11T07:33:20.042Z,47.78
2023-05-11T07:36:07.329Z,47.34
2023-05-11T07:38:58.092Z,47.51
2023-05-11T07:41:43.973Z,47.94
2023-05-11T07:44:30.158Z,47.48
2023-05-11T07:47:17.715Z,47.34
2023-05-11T07:50:04.059Z,47.05
2023-05-11T07:52:49.943Z,45.56
2023-05-11T07:55:36.187Z,45.39
2023-05-11T07:58:21.838Z,45.09
2023-05-11T08:01:07.944Z,44.45
2023-05-11T08:03:57.284Z,44.36
2023-05-11T08:06:43.705Z,44.52
2023-05-11T08:09:30.065Z,44.56
2023-05-11T08:12:16.401Z,43.54
2023-05-11T08:15:03.054Z,43.49
2023-05-11T08:17:52.096Z,43.48
2023-05-11T08:20:39.809Z,43.13
2023-05-11T08:23:28.698Z,42.32
2023-05-11T08:26:18.395Z,41.77
2023-05-11T08:29:04.967Z,41.35
2023-05-11T08:31:50.872Z,40.95
2023-05-11T08:34:37.460Z,40.70
2023-05-11T08:37:23.803Z,40.78
2023-05-11T08:40:14.821Z,40.05
2023-05-11T08:43:05.829Z,40.24
2023-05-11T08:45:58.670Z,40.00
2023-05-11T08:48:47.961Z,40.31
2023-05-11T08:51:34.153Z,40.55
2023-05-11T08:54:20.133Z,40.40
2023-05-11T08:57:07.251Z,40.38
2023-05-11T08:59:53.515Z,40.36
2023-05-11T09:02:40.011Z,39.97
2023-05-11T09:05:28.040Z,40.25
2023-05-11T09:08:15.515Z,40.39
2023-05-11T09:11:01.424Z,40.15
2023-05-11T09:13:48.491Z,39.91
2023-05-11T09:16:37.488Z,40.13
2023-05-11T09:19:24.030Z,39.83
2023-05-11T09:22:10.009Z,39.52
2023-05-11T09:25:02.981Z,39.68
2023-05-11T09:27:49.114Z,39.80
2023-05-11T09:30:35.347Z,39.73
2023-05-11T09:33:24.904Z,40.12
2023-05-11T09:36:22.934Z,39.99
2023-05-11T09:39:15.516Z,40.20
2023-05-11T09:42:23.339Z,40.16
2023-05-11T09:45:13.195Z,40.63
2023-05-11T09:47:59.272Z,40.86
2023-05-11T09:50:46.184Z,40.22
2023-05-11T09:53:39.168Z,40.19
2023-05-11T09:56:54.458Z,40.67
2023-05-11T09:59:41.787Z,40.51
2023-05-11T10:02:30.022Z,40.60
2023-05-11T10:05:17.093Z,40.75
2023-05-11T10:08:04.653Z,40.83
2023-05-11T10:10:51.107Z,39.99
2023-05-11T10:13:40.899Z,40.57
2023-05-11T10:16:27.121Z,40.57
2023-05-11T10:19:13.652Z,40.60
2023-05-11T10:22:00.988Z,39.42
2023-05-11T10:24:47.013Z,39.32
2023-05-11T10:27:34.063Z,39.59
2023-05-11T10:30:20.932Z,39.94
2023-05-11T10:33:07.572Z,39.93
2023-05-11T10:35:54.329Z,40.02
2023-05-11T10:38:40.845Z,39.96
2023-05-11T10:42:13.608Z,39.69
2023-05-11T10:45:14.369Z,39.58
2023-05-11T10:48:28.279Z,40.01
2023-05-11T10:51:49.221Z,39.90
2023-05-11T10:54:57.326Z,40.21
2023-05-11T10:58:37.565Z,39.97
2023-05-11T11:01:30.799Z,40.03
2023-05-11T11:04:17.510Z,40.00
2023-05-11T11:07:07.058Z,40.06
2023-05-11T11:09:56.308Z,40.42
2023-05-11T11:13:02.033Z,40.37
2023-05-11T11:15:54.452Z,39.65
2023-05-11T11:18:40.740Z,39.72
2023-05-11T11:21:42.809Z,40.06
2023-05-11T11:24:38.286Z,40.09
2023-05-11T11:27:47.665Z,40.16
2023-05-11T11:30:33.549Z,40.62
2023-05-11T11:33:20.078Z,40.40
2023-05-11T11:36:06.123Z,40.16
2023-05-11T11:39:02.864Z,40.17
2023-05-11T11:42:06.953Z,40.35
2023-05-11T11:45:29.362Z,39.92
2023-05-11T11:48:24.562Z,40.18
2023-05-11T11:51:12.291Z,40.24
2023-05-11T11:54:00.706Z,40.13
2023-05-11T11:56:47.398Z,40.15
2023-05-11T11:59:47.274Z,40.16
2023-05-11T12:02:34.978Z,40.30
2023-05-11T12:05:24.022Z,40.29
2023-05-11T12:08:11.746Z,40.55
2023-05-11T12:10:58.699Z,40.28
2023-05-11T12:13:45.830Z,40.42
2023-05-11T12:16:34.431Z,39.96
2023-05-11T12:19:24.652Z,39.97
2023-05-11T12:22:14.006Z,40.15
2023-05-11T12:25:06.017Z,40.18
2023-05-11T12:28:03.363Z,39.74
2023-05-11T12:30:56.320Z,40.44
2023-05-11T12:33:50.598Z,40.31
2023-05-11T12:36:36.884Z,40.09
2023-05-11T12:39:26.000Z,40.34
2023-05-11T12:42:18.751Z,40.63
2023-05-11T12:45:05.755Z,40.27
2023-05-11T12:47:54.373Z,40.46
2023-05-11T12:50:46.860Z,40.38
2023-05-11T12:53:37.140Z,40.66
2023-05-11T12:56:22.984Z,40.65
2023-05-11T12:59:43.805Z,40.72
2023-05-11T13:02:29.847Z,40.75
2023-05-11T13:05:17.036Z,40.30
2023-05-11T13:08:04.508Z,40.24
2023-05-11T13:10:51.032Z,40.56
2023-05-11T13:13:37.515Z,40.46
2023-05-11T13:16:25.066Z,40.63
2023-05-11T13:19:11.012Z,40.89
2023-05-11T13:21:58.715Z,40.65
2023-05-11T13:24:47.359Z,40.62
2023-05-11T13:27:33.831Z,40.61
2023-05-11T13:30:19.975Z,40.76
2023-05-11T13:33:06.601Z,40.58
2023-05-11T13:35:52.567Z,40.32
2023-05-11T13:38:39.015Z,40.29
2023-05-11T13:41:25.071Z,40.13
2023-05-11T13:44:11.252Z,40.10
2023-05-11T13:46:56.981Z,40.08
2023-05-11T13:49:43.322Z,40.29
2023-05-11T13:52:29.253Z,40.71
2023-05-11T13:55:15.876Z,40.94
2023-05-11T13:58:02.494Z,40.96
2023-05-11T14:01:06.669Z,40.57
2023-05-11T14:03:55.710Z,40.53
2023-05-11T14:06:43.212Z,40.55
2023-05-11T14:09:30.950Z,40.54
2023-05-11T14:12:18.072Z,40.43
2023-05-11T14:15:07.121Z,40.63
2023-05-11T14:17:56.781Z,40.59
2023-05-11T14:20:42.968Z,40.39
2023-05-11T14:23:29.380Z,40.69
2023-05-11T14:26:15.467Z,40.63
2023-05-11T14:29:01.966Z,40.70
2023-05-11T14:31:48.500Z,40.62
2023-05-11T14:34:35.301Z,41.00
2023-05-11T14:37:21.416Z,40.54
2023-05-11T14:40:08.630Z,40.96
2023-05-11T14:42:57.143Z,40.55
2023-05-11T14:45:48.487Z,40.88
2023-05-11T14:48:36.831Z,40.92
2023-05-11T14:51:24.979Z,40.52
2023-05-11T14:54:11.177Z,40.61
2023-05-11T14:56:59.622Z,40.34
2023-05-11T14:59:58.319Z,40.25
2023-05-11T15:02:45.912Z,40.25
2023-05-11T15:05:32.291Z,40.54
2023-05-11T15:08:29.176Z,40.55
2023-05-11T15:11:20.192Z,40.63
2023-05-11T15:14:10.725Z,40.41
2023-05-11T15:17:01.743Z,40.36
2023-05-11T15:19:48.338Z,40.22
2023-05-11T15:22:34.262Z,40.29
2023-05-11T15:25:21.455Z,40.23
2023-05-11T15:28:07.478Z,39.87
2023-05-11T15:30:54.064Z,39.89
2023-05-11T15:33:43.124Z,39.96
2023-05-11T15:36:33.291Z,39.99
2023-05-11T15:39:22.233Z,39.96
2023-05-11T15:42:09.860Z,40.00
2023-05-11T15:44:56.177Z,39.40
2023-05-11T15:47:48.671Z,39.53
2023-05-11T15:50:35.201Z,39.62
2023-05-11T15:53:21.794Z,39.70
2023-05-11T15:56:08.396Z,39.47
2023-05-11T15:58:55.035Z,39.53
2023-05-11T16:01:41.485Z,39.72
2023-05-11T16:04:28.206Z,39.88
2023-05-11T16:07:18.440Z,40.13
2023-05-11T16:10:06.640Z,40.02
2023-05-11T16:12:53.296Z,39.73
2023-05-11T16:15:40.392Z,39.62
2023-05-11T16:18:26.474Z,39.40
2023-05-11T16:21:14.593Z,39.83
2023-05-11T16:24:01.229Z,39.77
2023-05-11T16:26:48.649Z,39.90
2023-05-11T16:29:37.173Z,40.12
2023-05-11T16:32:26.779Z,39.91
2023-05-11T16:35:13.681Z,40.39
2023-05-11T16:38:01.247Z,40.36
2023-05-11T16:40:50.821Z,40.36
2023-05-11T16:43:42.218Z,40.53
2023-05-11T16:46:28.992Z,40.85
2023-05-11T16:49:20.700Z,40.90
2023-05-11T16:52:10.607Z,41.14
2023-05-11T16:54:59.137Z,41.42
2023-05-11T16:57:54.360Z,41.36
2023-05-11T17:00:41.951Z,41.68
2023-05-11T17:03:28.223Z,41.72
2023-05-11T17:06:24.151Z,41.76
2023-05-11T17:09:12.270Z,41.80
2023-05-11T17:11:58.946Z,41.93
2023-05-11T17:14:50.516Z,42.33
2023-05-11T17:17:41.250Z,42.59
2023-05-11T17:20:27.804Z,42.59
2023-05-11T17:23:25.613Z,42.81
2023-05-11T17:26:12.740Z,42.93
2023-05-11T17:29:00.441Z,43.20
2023-05-11T17:31:49.214Z,43.21
2023-05-11T17:34:36.111Z,43.43
2023-05-11T17:37:31.239Z,43.55
2023-05-11T17:40:18.879Z,43.78
2023-05-11T17:43:13.393Z,44.03
2023-05-11T17:46:02.613Z,44.02
2023-05-11T17:48:52.656Z,44.30
2023-05-11T17:51:38.859Z,44.81
2023-05-11T17:54:27.316Z,44.79
2023-05-11T17:57:14.092Z,45.20
2023-05-11T18:00:00.044Z,45.61
2023-05-11T18:02:48.763Z,45.53
2023-05-11T18:05:47.545Z,45.73
2023-05-11T18:08:36.795Z,46.05
2023-05-11T18:11:26.460Z,46.13
2023-05-11T18:14:12.819Z,46.44
2023-05-11T18:17:00.069Z,46.60
2023-05-11T18:19:46.612Z,46.92
2023-05-11T18:22:34.158Z,47.32
2023-05-11T18:25:21.585Z,47.69
2023-05-11T18:28:07.486Z,47.57
2023-05-11T18:30:54.353Z,47.80
2023-05-11T18:33:40.246Z,48.11
2023-05-11T18:36:26.521Z,48.23
2023-05-11T18:39:14.299Z,48.59
2023-05-11T18:42:01.802Z,48.93
2023-05-11T18:44:53.597Z,48.89
2023-05-11T18:47:41.932Z,49.01
2023-05-11T18:50:29.759Z,49.39
2023-05-11T18:53:15.951Z,49.35
2023-05-11T18:56:05.633Z,49.66
2023-05-11T18:58:51.919Z,49.62
2023-05-11T19:01:46.933Z,49.73
2023-05-11T19:04:33.608Z,49.78
2023-05-11T19:07:20.405Z,50.04
2023-05-11T19:10:08.210Z,50.18
2023-05-11T19:12:54.395Z,50.28
2023-05-11T19:15:40.609Z,50.46
2023-05-11T19:18:27.941Z,50.57
2023-05-11T19:21:14.162Z,50.86
2023-05-11T19:24:00.165Z,50.88
2023-05-11T19:26:52.383Z,51.09
2023-05-11T19:29:49.691Z,51.20
2023-05-11T19:32:36.438Z,51.50
2023-05-11T19:35:22.834Z,51.59
2023-05-11T19:38:09.165Z,52.01
2023-05-11T19:40:55.704Z,52.13
2023-05-11T19:43:42.661Z,52.38
2023-05-11T19:46:29.174Z,52.62
2023-05-11T19:49:16.414Z,52.84
2023-05-11T19:52:03.082Z,52.86
2023-05-11T19:54:49.012Z,52.94
2023-05-11T19:57:37.494Z,53.21
2023-05-11T20:00:25.409Z,53.54
2023-05-11T20:03:11.629Z,53.38
2023-05-11T20:05:57.878Z,53.77
2023-05-11T20:08:46.384Z,53.87
2023-05-11T20:11:34.183Z,54.02
2023-05-11T20:14:20.323Z,53.91
2023-05-11T20:17:07.510Z,54.36
2023-05-11T20:19:53.806Z,54.16
2023-05-11T20:22:39.880Z,54.28
2023-05-11T20:25:26.681Z,54.54
2023-05-11T20:28:12.549Z,54.56
2023-05-11T20:30:58.701Z,54.72
2023-05-11T20:36:34.600Z,55.19
2023-05-11T20:39:26.218Z,55.54
2023-05-11T20:42:12.449Z,55.35
2023-05-11T20:45:07.445Z,55.63
2023-05-11T20:47:53.974Z,55.74
2023-05-11T20:50:40.095Z,55.65
2023-05-11T20:53:26.847Z,56.12
2023-05-11T20:56:13.790Z,56.14
2023-05-11T20:59:00.381Z,56.27
2023-05-11T21:01:46.956Z,56.39
2023-05-11T21:04:34.106Z,56.54
2023-05-11T21:07:23.210Z,56.55
2023-05-11T21:10:12.098Z,56.50
2023-05-11T21:12:58.068Z,56.60
2023-05-11T21:15:44.834Z,56.76
2023-05-11T21:18:34.526Z,56.41
2023-05-11T21:21:21.372Z,56.72
2023-05-11T21:24:07.317Z,56.67
2023-05-11T21:26:53.677Z,56.80
2023-05-11T21:29:39.394Z,56.68
2023-05-11T21:32:25.539Z,56.83
2023-05-11T21:35:11.830Z,56.91
2023-05-11T21:37:58.268Z,57.02
2023-05-11T21:40:44.554Z,56.95
2023-05-11T21:43:31.181Z,56.90
2023-05-11T21:46:17.560Z,57.13
2023-05-11T21:49:03.886Z,57.27
2023-05-11T21:51:50.320Z,57.17
2023-05-11T21:54:36.721Z,57.30
2023-05-11T21:57:23.032Z,57.25
2023-05-11T22:00:10.869Z,57.36
2023-05-11T22:02:56.819Z,57.64
2023-05-11T22:05:43.471Z,57.69
2023-05-11T22:08:29.442Z,57.99
2023-05-11T22:11:16.156Z,58.01
2023-05-11T22:14:02.314Z,58.03
2023-05-11T22:16:48.722Z,58.25
2023-05-11T22:19:34.629Z,58.34
2023-05-11T22:22:20.997Z,58.39
2023-05-11T22:25:08.177Z,58.54
2023-05-11T22:27:54.027Z,58.56
2023-05-11T22:30:39.576Z,58.85
2023-05-11T22:33:26.031Z,58.72
2023-05-11T22:36:12.309Z,58.97
2023-05-11T22:38:58.638Z,58.93
2023-05-11T22:41:44.403Z,59.20
2023-05-11T22:44:31.038Z,59.29
2023-05-11T22:47:17.222Z,59.41
2023-05-11T22:50:03.813Z,59.50
2023-05-11T22:52:50.213Z,59.71
2023-05-11T22:55:38.673Z,59.86
2023-05-11T22:58:25.260Z,59.82
2023-05-11T23:01:12.447Z,60.18
2023-05-11T23:03:58.590Z,60.21
2023-05-11T23:06:44.794Z,60.65
2023-05-11T23:09:30.418Z,60.42
2023-05-11T23:12:18.439Z,60.82
2023-05-11T23:15:05.212Z,60.76
2023-05-11T23:17:52.770Z,61.05
2023-05-11T23:20:39.066Z,61.25
2023-05-11T23:23:25.532Z,61.29
2023-05-11T23:26:11.264Z,61.57
2023-05-11T23:28:57.755Z,61.53
2023-05-11T23:31:43.880Z,61.76
2023-05-11T23:34:30.550Z,62.14
2023-05-11T23:37:17.009Z,62.10
2023-05-11T23:40:04.233Z,61.83
2023-05-11T23:42:50.182Z,62.06
2023-05-11T23:45:37.326Z,62.01
2023-05-11T23:48:24.372Z,62.07
2023-05-11T23:51:11.832Z,62.38
2023-05-11T23:54:03.159Z,62.25
2023-05-11T23:56:50.020Z,62.52
2023-05-11T23:59:38.964Z,62.42
